Seago Piraeus — OXVD2 — position and weather

sailwx.info

Track history (hours):
 
Tides and Currents Weather Stations Pressure Air Temp Water Temp Dewpoint Dewpoint Depression Visibility Wind Speed Wind Dir Waves Ship Positions

Seago Piraeus

Last reported at 2015-Apr-19 13:33 UTC. Time now 2015-Apr-19 15:38 UTC.
Position N 37°45' E 023°39'.

Length 294 m; draft 11.7 m.

Type: Ship (hazmat cat A). MMSI: 219117000.

Date/timePositionNaut miles runAvg speedWind from/ knotsBaromVisibWave heightAir tempDewpointWater temp
2015-Apr-19 13:33N 37°45' E 023°39'1212.5
2015-Apr-19 12:33N 37°57' E 023°36'1 0.7
2015-Apr-19 11:24N 37°57' E 023°35'0 0.0
2015-Apr-19 10:09N 37°57' E 023°35'0 0.0
2015-Apr-19 09:27N 37°57' E 023°35'0 0.0
2015-Apr-19 08:33N 37°57' E 023°35'0 0.0
2015-Apr-19 07:33N 37°57' E 023°35'0 0.0
2015-Apr-19 06:15N 37°57' E 023°35'0 0.0
2015-Apr-19 05:33N 37°57' E 023°35'0 0.0
2015-Apr-19 04:32N 37°57' E 023°35'3 3.4
2015-Apr-19 03:33N 37°54' E 023°35'1 0.6
2015-Apr-19 02:33N 37°55' E 023°35'1 1.4
2015-Apr-19 01:33N 37°53' E 023°36'1414.1
2015-Apr-19 00:33N 37°41' E 023°44'1716.7
2015-Apr-18 23:33N 37°24' E 023°42'1717.0
2015-Apr-18 22:33N 37°08' E 023°38'2116.6
2015-Apr-18 21:19N 36°48' E 023°31'1317.0
2015-Apr-18 20:32N 36°36' E 023°24'33114.8
2015-Apr-17 22:08N 36°27' E 016°33'6714.4
2015-Apr-17 17:29N 36°29' E 015°09'1414.8
2015-Apr-17 16:33N 36°29' E 014°52'1514.6
2015-Apr-17 15:33N 36°30' E 014°34'1514.5
2015-Apr-17 14:33N 36°34' E 014°17'1414.3
2015-Apr-17 13:34N 36°38' E 013°60'1414.4
2015-Apr-17 12:33N 36°43' E 013°43'1414.4
2015-Apr-17 11:33N 36°47' E 013°25'1514.6
2015-Apr-17 10:34N 36°51' E 013°08'1514.4
2015-Apr-17 09:33N 36°54' E 012°50'1414.2
2015-Apr-17 08:34N 36°60' E 012°34'3114.4
2015-Apr-17 06:25N 37°09' E 011°57'1214.2
2015-Apr-17 05:33N 37°13' E 011°42'2014.0
2015-Apr-17 04:09N 37°19' E 011°19'813.9
2015-Apr-17 03:33N 37°23' E 011°09'4214.0
2015-Apr-17 00:33N 37°34' E 010°19'7014.0
2015-Apr-16 19:34N 37°49' E 008°52'3114.5
2015-Apr-16 17:27N 37°57' E 008°15'1414.1
2015-Apr-16 16:27N 38°00' E 007°58'1213.9
2015-Apr-16 15:33N 38°03' E 007°42'1414.0
2015-Apr-16 14:32N 38°06' E 007°24'1313.3
2015-Apr-16 13:33N 38°09' E 007°08'1913.3
2015-Apr-16 12:08N 38°14' E 006°45'912.1
2015-Apr-16 11:25N 38°16' E 006°34'1413.3
2015-Apr-16 10:20N 38°19' E 006°16'1713.7
2015-Apr-16 09:06N 38°23' E 005°55'9614.1
2015-Apr-16 02:16N 38°46' E 003°56'2514.3
2015-Apr-16 00:33N 38°52' E 003°25'1414.4
2015-Apr-15 23:33N 38°55' E 003°07'1414.4
2015-Apr-15 22:33N 38°58' E 002°49'1414.1
2015-Apr-15 21:33N 39°02' E 002°32'1414.1
2015-Apr-15 20:33N 39°05' E 002°14'1414.4
2015-Apr-15 19:33N 39°08' E 001°56'1514.5
2015-Apr-15 18:33N 39°12' E 001°38'1515.0
2015-Apr-15 17:33N 39°14' E 001°18'1515.3
2015-Apr-15 16:33N 39°16' E 000°59'5814.4
2015-Apr-15 12:33N 39°25' W 000°15'3 3.4
2015-Apr-15 11:33N 39°26' W 000°19'0 0.0
2015-Apr-15 10:33N 39°26' W 000°19'0 0.0
2015-Apr-15 09:33N 39°26' W 000°19'0 0.0
2015-Apr-15 08:33N 39°26' W 000°19'64 3.0
2015-Apr-14 11:09N 38°27' E 000°14'2713.9
2015-Apr-14 09:14N 38°05' W 000°04'1013.5
2015-Apr-14 08:30N 37°57' W 000°11'1313.8
2015-Apr-14 07:33N 37°46' W 000°20'1413.6
2015-Apr-14 06:33N 37°35' W 000°30'1313.4
2015-Apr-14 05:33N 37°25' W 000°42'1313.4
2015-Apr-14 04:33N 37°16' W 000°55'1413.5
2015-Apr-14 03:32N 37°07' W 001°08'20512.0
2015-Apr-13 10:29N 36°01' W 005°09'1213.0
2015-Apr-13 09:33N 35°58' W 005°23'16511.5
2015-Apr-12 19:17N 36°26' W 008°45'1112.1
2015-Apr-12 18:24N 36°28' W 008°58'1212.2
2015-Apr-12 17:26N 36°31' W 009°12'1612.4
2015-Apr-12 16:07N 36°42' W 009°27'6212.4
2015-Apr-12 11:08N 37°41' W 009°49'1912.1
2015-Apr-12 09:33N 38°00' W 009°54'1211.9
2015-Apr-12 08:32N 38°12' W 009°57'1212.1
2015-Apr-12 07:32N 38°24' W 010°01'1212.6
2015-Apr-12 06:33N 38°36' W 010°04'1312.8
2015-Apr-12 05:33N 38°48' W 010°06'1312.6
2015-Apr-12 04:33N 39°01' W 010°06'1312.8
2015-Apr-12 03:33N 39°14' W 010°06'1312.7
2015-Apr-12 02:33N 39°26' W 010°06'1413.0
2015-Apr-12 01:30N 39°40' W 010°05'1313.1
2015-Apr-12 00:32N 39°53' W 010°06'1413.1
2015-Apr-11 23:26N 40°07' W 010°06'2712.8
2015-Apr-11 21:18N 40°35' W 010°05'1012.9
2015-Apr-11 20:31N 40°45' W 010°05'46913.6
2015-Apr-10 10:00N 48°06' W 006°24'5211.5 190 / 141016.0 5.4 0.512.9 8.710.0
2015-Apr-10 05:29N 48°53' W 005°50'3511.9
2015-Apr-10 02:31N 49°11' W 005°04'6713.1
2015-Apr-09 21:24N 49°46' W 003°36'1011.7
2015-Apr-09 20:33N 49°51' W 003°22'1212.2
2015-Apr-09 19:34N 49°57' W 003°06'1313.2
2015-Apr-09 18:34N 50°01' W 002°46'1514.7
2015-Apr-09 17:33N 50°06' W 002°24'1616.0
2015-Apr-09 16:34N 50°11' W 002°01'1616.0
2015-Apr-09 15:34N 50°16' W 001°37'1514.9
2015-Apr-09 14:33N 50°18' W 001°14'1313.3
2015-Apr-09 13:33N 50°22' W 000°54'  
Track history (hours):
 
Tides and Currents Weather Stations Pressure Air Temp Water Temp Dewpoint Dewpoint Depression Visibility Wind Speed Wind Dir Waves Ship Positions

Seago Piraeus

Last reported at 2015-Apr-19 13:33 UTC. Time now 2015-Apr-19 15:38 UTC.
Position N 37°45' E 023°39'.

Length 294 m; draft 11.7 m.

Type: Ship (hazmat cat A). MMSI: 219117000.

Date/timePositionNaut miles runAvg speedWind from/ knotsBaromVisibWave heightAir tempDewpointWater temp
2015-Apr-19 13:33N 37°45' E 023°39'1212.5
2015-Apr-19 12:33N 37°57' E 023°36'1 0.7
2015-Apr-19 11:24N 37°57' E 023°35'0 0.0
2015-Apr-19 10:09N 37°57' E 023°35'0 0.0
2015-Apr-19 09:27N 37°57' E 023°35'0 0.0
2015-Apr-19 08:33N 37°57' E 023°35'0 0.0
2015-Apr-19 07:33N 37°57' E 023°35'0 0.0
2015-Apr-19 06:15N 37°57' E 023°35'0 0.0
2015-Apr-19 05:33N 37°57' E 023°35'0 0.0
2015-Apr-19 04:32N 37°57' E 023°35'3 3.4
2015-Apr-19 03:33N 37°54' E 023°35'1 0.6
2015-Apr-19 02:33N 37°55' E 023°35'1 1.4
2015-Apr-19 01:33N 37°53' E 023°36'1414.1
2015-Apr-19 00:33N 37°41' E 023°44'1716.7
2015-Apr-18 23:33N 37°24' E 023°42'1717.0
2015-Apr-18 22:33N 37°08' E 023°38'2116.6
2015-Apr-18 21:19N 36°48' E 023°31'1317.0
2015-Apr-18 20:32N 36°36' E 023°24'33114.8
2015-Apr-17 22:08N 36°27' E 016°33'6714.4
2015-Apr-17 17:29N 36°29' E 015°09'1414.8
2015-Apr-17 16:33N 36°29' E 014°52'1514.6
2015-Apr-17 15:33N 36°30' E 014°34'1514.5
2015-Apr-17 14:33N 36°34' E 014°17'1414.3
2015-Apr-17 13:34N 36°38' E 013°60'1414.4
2015-Apr-17 12:33N 36°43' E 013°43'1414.4
2015-Apr-17 11:33N 36°47' E 013°25'1514.6
2015-Apr-17 10:34N 36°51' E 013°08'1514.4
2015-Apr-17 09:33N 36°54' E 012°50'1414.2
2015-Apr-17 08:34N 36°60' E 012°34'3114.4
2015-Apr-17 06:25N 37°09' E 011°57'1214.2
2015-Apr-17 05:33N 37°13' E 011°42'2014.0
2015-Apr-17 04:09N 37°19' E 011°19'813.9
2015-Apr-17 03:33N 37°23' E 011°09'4214.0
2015-Apr-17 00:33N 37°34' E 010°19'7014.0
2015-Apr-16 19:34N 37°49' E 008°52'3114.5
2015-Apr-16 17:27N 37°57' E 008°15'1414.1
2015-Apr-16 16:27N 38°00' E 007°58'1213.9
2015-Apr-16 15:33N 38°03' E 007°42'1414.0
2015-Apr-16 14:32N 38°06' E 007°24'1313.3
2015-Apr-16 13:33N 38°09' E 007°08'1913.3
2015-Apr-16 12:08N 38°14' E 006°45'912.1
2015-Apr-16 11:25N 38°16' E 006°34'1413.3
2015-Apr-16 10:20N 38°19' E 006°16'1713.7
2015-Apr-16 09:06N 38°23' E 005°55'9614.1
2015-Apr-16 02:16N 38°46' E 003°56'2514.3
2015-Apr-16 00:33N 38°52' E 003°25'1414.4
2015-Apr-15 23:33N 38°55' E 003°07'1414.4
2015-Apr-15 22:33N 38°58' E 002°49'1414.1
2015-Apr-15 21:33N 39°02' E 002°32'1414.1
2015-Apr-15 20:33N 39°05' E 002°14'1414.4
2015-Apr-15 19:33N 39°08' E 001°56'1514.5
2015-Apr-15 18:33N 39°12' E 001°38'1515.0
2015-Apr-15 17:33N 39°14' E 001°18'1515.3
2015-Apr-15 16:33N 39°16' E 000°59'5814.4
2015-Apr-15 12:33N 39°25' W 000°15'3 3.4
2015-Apr-15 11:33N 39°26' W 000°19'0 0.0
2015-Apr-15 10:33N 39°26' W 000°19'0 0.0
2015-Apr-15 09:33N 39°26' W 000°19'0 0.0
2015-Apr-15 08:33N 39°26' W 000°19'64 3.0
2015-Apr-14 11:09N 38°27' E 000°14'2713.9
2015-Apr-14 09:14N 38°05' W 000°04'1013.5
2015-Apr-14 08:30N 37°57' W 000°11'1313.8
2015-Apr-14 07:33N 37°46' W 000°20'1413.6
2015-Apr-14 06:33N 37°35' W 000°30'1313.4
2015-Apr-14 05:33N 37°25' W 000°42'1313.4
2015-Apr-14 04:33N 37°16' W 000°55'1413.5
2015-Apr-14 03:32N 37°07' W 001°08'20512.0
2015-Apr-13 10:29N 36°01' W 005°09'1213.0
2015-Apr-13 09:33N 35°58' W 005°23'16511.5
2015-Apr-12 19:17N 36°26' W 008°45'1112.1
2015-Apr-12 18:24N 36°28' W 008°58'1212.2
2015-Apr-12 17:26N 36°31' W 009°12'1612.4
2015-Apr-12 16:07N 36°42' W 009°27'6212.4
2015-Apr-12 11:08N 37°41' W 009°49'1912.1
2015-Apr-12 09:33N 38°00' W 009°54'1211.9
2015-Apr-12 08:32N 38°12' W 009°57'1212.1
2015-Apr-12 07:32N 38°24' W 010°01'1212.6
2015-Apr-12 06:33N 38°36' W 010°04'1312.8
2015-Apr-12 05:33N 38°48' W 010°06'1312.6
2015-Apr-12 04:33N 39°01' W 010°06'1312.8
2015-Apr-12 03:33N 39°14' W 010°06'1312.7
2015-Apr-12 02:33N 39°26' W 010°06'1413.0
2015-Apr-12 01:30N 39°40' W 010°05'1313.1
2015-Apr-12 00:32N 39°53' W 010°06'1413.1
2015-Apr-11 23:26N 40°07' W 010°06'2712.8
2015-Apr-11 21:18N 40°35' W 010°05'1012.9
2015-Apr-11 20:31N 40°45' W 010°05'46913.6
2015-Apr-10 10:00N 48°06' W 006°24'5211.5 190 / 141016.0 5.4 0.512.9 8.710.0
2015-Apr-10 05:29N 48°53' W 005°50'3511.9
2015-Apr-10 02:31N 49°11' W 005°04'6713.1
2015-Apr-09 21:24N 49°46' W 003°36'1011.7
2015-Apr-09 20:33N 49°51' W 003°22'1212.2
2015-Apr-09 19:34N 49°57' W 003°06'1313.2
2015-Apr-09 18:34N 50°01' W 002°46'1514.7
2015-Apr-09 17:33N 50°06' W 002°24'1616.0
2015-Apr-09 16:34N 50°11' W 002°01'1616.0
2015-Apr-09 15:34N 50°16' W 001°37'1514.9
2015-Apr-09 14:33N 50°18' W 001°14'1313.3
2015-Apr-09 13:33N 50°22' W 000°54'  

Dump ship's entire track history